KDUG/DUG METAR and TAF weather

Enter ICAO airport designator
Station Type Date Time Source
KDUG METAR 2023/02/05 19:56 UTC NOAA

KDUG 051956Z AUTO 17011KT 10SM CLR 23/M05 A3014 RMK AO2 SLP165 T02331050 TSNO


Station Type Date Time Source
KDUG Decoded METAR 2023/02/05 19:56 UTC NOAA

BISBEE DOUGLAS INTERNATIONAL AIRPORT , AZ, United States (KDUG) 31-28N 109-36W
Feb 05, 2023 - 02:56 PM EST / 2023.02.05 1956 UTC
Wind: from the S (170 degrees) at 13 MPH (11 KT):0
Visibility: 10 mile(s):0
Sky conditions: clear
Temperature: 73.9 F (23.3 C)
Dew Point: 23.0 F (-5.0 C)
Relative Humidity: 14%
Pressure (altimeter): 30.14 in. Hg (1020 hPa)
ob: KDUG 051956Z AUTO 17011KT 10SM CLR 23/M05 A3014 RMK AO2 SLP165 T02331050 TSNO
cycle: 20

Station Type Date Time Source
KDUG TAF 2023/02/05 18:30 UTC NOAA

TAF KDUG 051729Z 0518/0618 17008KT P6SM SKC
FM052300 24014G22KT P6SM SKC
FM060200 VRB04KT P6SM BKN200
FM061700 17007KT P6SM SCT200

Example: see airport list